Time;durP1;ratioP1;P1;durP2;ratioP2;P2;SDS_P1;SDS_P2;PMS_P1;PMS_P2;Temp;Humidity;BMP_temperature;BMP_pressure;BME280_temperature;BME280_humidity;BME280_pressure;Samples;Min_cycle;Max_cycle;Signal;HPM_P1;HPM_P2
2023/01/03 00:00:54;;;;;;;7.10;1.60;;;6.60;99.90;;;;;;5027192;28;20318;-53
2023/01/03 00:03:21;;;;;;;6.43;1.60;;;6.70;99.90;;;;;;5024310;28;20283;-52
2023/01/03 00:05:48;;;;;;;3.80;1.60;;;6.70;99.90;;;;;;5022213;28;20224;-52
2023/01/03 00:08:15;;;;;;;10.37;1.63;;;6.70;99.90;;;;;;5023245;28;20298;-53
2023/01/03 00:10:43;;;;;;;5.87;1.57;;;6.70;99.90;;;;;;5015667;28;20207;-54
2023/01/03 00:13:10;;;;;;;5.87;1.50;;;6.70;99.90;;;;;;5014083;28;20214;-52
2023/01/03 00:15:38;;;;;;;7.07;1.27;;;6.70;99.90;;;;;;5024729;28;20227;-48
2023/01/03 00:18:05;;;;;;;5.93;1.43;;;6.80;99.90;;;;;;5022987;28;20729;-51
2023/01/03 00:20:33;;;;;;;10.87;1.30;;;6.80;99.90;;;;;;5020589;28;20203;-47
2023/01/03 00:23:00;;;;;;;6.90;1.67;;;6.70;99.90;;;;;;5040185;28;20589;-52
2023/01/03 00:25:28;;;;;;;7.17;1.60;;;6.80;99.90;;;;;;5023619;28;20640;-51
2023/01/03 00:27:55;;;;;;;3.10;1.20;;;6.70;99.90;;;;;;5017927;28;20204;-46
2023/01/03 00:30:23;;;;;;;6.83;1.80;;;6.80;99.90;;;;;;5029135;28;20195;-53
2023/01/03 00:32:50;;;;;;;6.07;1.87;;;6.70;99.90;;;;;;5028552;28;20202;-47
2023/01/03 00:35:17;;;;;;;8.90;1.77;;;6.70;99.90;;;;;;5022732;28;20713;-51
2023/01/03 00:37:44;;;;;;;5.17;1.53;;;6.70;99.90;;;;;;5025272;28;20304;-46
2023/01/03 00:40:11;;;;;;;10.33;1.50;;;6.70;99.90;;;;;;5024222;28;20192;-51
2023/01/03 00:45:20;;;;;;;5.63;1.67;;;6.70;99.90;;;;;;5030754;28;20227;-53
2023/01/03 00:47:48;;;;;;;4.13;1.17;;;6.60;99.90;;;;;;5024660;28;20270;-50
2023/01/03 00:50:15;;;;;;;6.40;1.70;;;6.60;99.90;;;;;;5032446;28;20220;-49
2023/01/03 00:52:42;;;;;;;3.73;1.20;;;6.50;99.90;;;;;;5023616;28;20199;-54
2023/01/03 00:55:09;;;;;;;4.27;1.70;;;6.50;99.90;;;;;;5035422;28;20198;-48
2023/01/03 00:57:36;;;;;;;4.63;1.30;;;6.50;99.90;;;;;;5006020;28;20215;-45
2023/01/03 01:00:05;;;;;;;4.10;1.30;;;6.50;99.90;;;;;;5033947;28;20282;-49
2023/01/03 01:02:32;;;;;;;5.40;1.30;;;6.50;99.90;;;;;;5030535;28;20286;-52
2023/01/03 01:04:59;;;;;;;2.93;1.40;;;6.50;99.90;;;;;;5031825;28;20199;-46
2023/01/03 01:07:27;;;;;;;4.33;1.37;;;6.40;99.90;;;;;;5017103;28;20196;-51
2023/01/03 01:09:54;;;;;;;8.10;1.50;;;6.40;99.90;;;;;;5023608;28;20298;-54
2023/01/03 01:12:21;;;;;;;3.87;1.30;;;6.40;99.90;;;;;;5012280;28;20335;-55
2023/01/03 01:14:49;;;;;;;7.40;1.40;;;6.30;99.90;;;;;;5020818;28;20206;-47
2023/01/03 01:17:16;;;;;;;6.07;1.23;;;6.30;99.90;;;;;;5032016;28;20216;-51
2023/01/03 01:19:44;;;;;;;6.60;1.00;;;6.30;99.90;;;;;;5020526;28;20200;-46
2023/01/03 01:22:13;;;;;;;7.23;1.43;;;6.20;99.90;;;;;;5028631;28;20274;-52
2023/01/03 01:24:40;;;;;;;4.13;1.60;;;6.20;99.90;;;;;;5024660;28;20278;-47
2023/01/03 01:27:07;;;;;;;4.47;1.13;;;6.20;99.90;;;;;;5027711;28;20219;-46
2023/01/03 01:29:34;;;;;;;3.37;0.90;;;6.20;99.90;;;;;;5010142;28;20202;-46
2023/01/03 01:32:02;;;;;;;6.10;1.40;;;6.20;99.90;;;;;;5030589;28;20200;-49
2023/01/03 01:34:31;;;;;;;4.93;1.50;;;6.10;99.90;;;;;;5023639;28;20204;-48
2023/01/03 01:36:58;;;;;;;7.23;1.37;;;6.10;99.90;;;;;;5027291;28;20224;-52
2023/01/03 01:39:28;;;;;;;8.63;1.53;;;6.10;99.90;;;;;;5026637;28;20614;-51
2023/01/03 01:44:55;;;;;;;4.30;1.10;;;6.00;99.90;;;;;;5015907;28;20257;-51
2023/01/03 01:47:32;;;;;;;3.60;1.10;;;6.00;99.90;;;;;;5030051;28;20290;-50
2023/01/03 01:50:06;;;;;;;7.63;1.20;;;6.00;99.90;;;;;;5033498;28;20200;-48
2023/01/03 01:52:36;;;;;;;4.00;1.30;;;5.90;99.90;;;;;;5033755;28;20191;-50
2023/01/03 01:55:07;;;;;;;6.20;1.63;;;5.90;99.90;;;;;;5027267;28;20204;-51
2023/01/03 01:57:37;;;;;;;7.87;1.80;;;5.90;99.90;;;;;;5022951;28;20188;-52
2023/01/03 02:00:04;;;;;;;2.77;1.63;;;5.80;99.90;;;;;;5016517;28;20966;-53
2023/01/03 02:02:31;;;;;;;7.57;1.60;;;5.80;99.90;;;;;;5033577;28;20948;-54
2023/01/03 02:05:03;;;;;;;3.90;1.20;;;5.80;99.90;;;;;;5026857;28;20554;-47
2023/01/03 02:07:31;;;;;;;5.23;1.00;;;5.80;99.90;;;;;;5024122;28;21034;-53
2023/01/03 02:09:58;;;;;;;7.20;1.60;;;5.70;99.90;;;;;;5031197;28;20192;-49
2023/01/03 02:15:30;;;;;;;2.93;1.20;;;5.70;99.90;;;;;;5020568;28;20199;-52
2023/01/03 02:18:14;;;;;;;7.67;1.20;;;5.70;99.90;;;;;;5031506;28;20837;-48
2023/01/03 02:21:04;;;;;;;4.87;1.20;;;5.70;99.90;;;;;;5025855;28;20914;-48
2023/01/03 02:23:52;;;;;;;9.83;1.40;;;5.60;99.90;;;;;;5020868;28;20712;-50
2023/01/03 02:26:44;;;;;;;5.57;1.00;;;5.60;99.90;;;;;;5025013;28;20228;-51
2023/01/03 02:29:44;;;;;;;3.17;1.20;;;5.60;99.90;;;;;;5038579;28;20199;-52
2023/01/03 02:32:19;;;;;;;4.37;1.30;;;5.60;99.90;;;;;;5023349;28;20207;-50
2023/01/03 02:34:50;;;;;;;4.50;1.43;;;5.50;99.90;;;;;;5031392;28;20188;-45
2023/01/03 02:37:28;;;;;;;6.37;1.50;;;5.50;99.90;;;;;;5025106;28;20628;-53
2023/01/03 02:40:01;;;;;;;2.33;1.30;;;5.50;99.90;;;;;;5039590;28;20697;-47
2023/01/03 02:45:21;;;;;;;6.90;1.50;;;5.50;99.90;;;;;;5006622;28;20211;-52
2023/01/03 02:47:54;;;;;;;3.97;1.63;;;5.40;99.90;;;;;;5033310;28;20195;-49
2023/01/03 02:50:26;;;;;;;4.87;1.70;;;5.40;99.90;;;;;;5023890;28;20204;-50
2023/01/03 02:52:56;;;;;;;8.33;2.67;;;5.40;99.90;;;;;;5031962;28;20208;-49
2023/01/03 02:55:26;;;;;;;5.47;1.50;;;5.40;99.90;;;;;;5023313;28;20228;-54
2023/01/03 02:57:58;;;;;;;7.83;1.73;;;5.40;99.90;;;;;;5025362;28;20211;-46
2023/01/03 03:00:28;;;;;;;4.43;2.00;;;5.30;99.90;;;;;;5012222;28;20662;-49
2023/01/03 03:03:01;;;;;;;3.23;1.40;;;5.30;99.90;;;;;;5031822;28;20222;-46
2023/01/03 03:05:32;;;;;;;7.03;2.10;;;5.30;99.90;;;;;;5030813;28;20223;-52
2023/01/03 03:08:02;;;;;;;2.33;1.57;;;5.30;99.90;;;;;;5025755;28;20207;-47
2023/01/03 03:13:22;;;;;;;4.83;1.80;;;5.20;99.90;;;;;;5022607;28;20207;-53
2023/01/03 03:15:54;;;;;;;2.93;2.00;;;5.20;99.90;;;;;;5019432;28;20979;-49
2023/01/03 03:18:31;;;;;;;3.47;1.50;;;5.20;99.90;;;;;;5032422;28;20222;-50
2023/01/03 03:26:38;;;;;;;3.70;1.87;;;5.10;99.90;;;;;;5034836;28;20276;-50
2023/01/03 03:29:10;;;;;;;2.37;1.60;;;5.00;99.90;;;;;;5030863;28;20725;-49
2023/01/03 03:31:40;;;;;;;4.87;1.50;;;5.00;99.90;;;;;;5006509;28;21630;-47
2023/01/03 03:34:13;;;;;;;4.20;1.87;;;5.00;99.90;;;;;;5033758;28;20214;-45
2023/01/03 03:36:47;;;;;;;5.77;1.80;;;5.00;99.90;;;;;;5026879;28;20738;-45
2023/01/03 03:45:07;;;;;;;7.17;1.80;;;4.90;99.90;;;;;;5031304;28;20192;-48
2023/01/03 03:47:42;;;;;;;7.50;1.83;;;4.90;99.90;;;;;;5007193;28;20832;-50
2023/01/03 03:50:18;;;;;;;5.33;1.83;;;4.80;99.90;;;;;;5038864;28;20572;-48
2023/01/03 03:52:47;;;;;;;4.37;1.63;;;4.80;99.90;;;;;;5022318;28;20204;-45
2023/01/03 03:55:17;;;;;;;4.20;1.27;;;4.80;99.90;;;;;;5023905;28;20207;-49
2023/01/03 03:57:50;;;;;;;3.30;1.93;;;4.70;99.90;;;;;;5017503;28;20218;-46
2023/01/03 04:00:21;;;;;;;4.63;1.70;;;4.70;99.90;;;;;;5023444;28;20227;-53
2023/01/03 04:02:49;;;;;;;4.93;1.57;;;4.70;99.90;;;;;;5013936;28;20230;-53
2023/01/03 04:05:20;;;;;;;6.07;1.40;;;4.70;99.90;;;;;;5030376;28;20262;-51
2023/01/03 04:07:48;;;;;;;5.53;1.80;;;4.70;99.90;;;;;;5028865;28;20192;-48
2023/01/03 04:10:19;;;;;;;2.40;1.70;;;4.70;99.90;;;;;;5023677;28;20238;-52
2023/01/03 04:12:47;;;;;;;4.17;1.60;;;4.60;99.90;;;;;;5020473;28;21609;-50
2023/01/03 04:15:14;;;;;;;4.40;1.67;;;4.60;99.90;;;;;;5026167;28;20219;-52
2023/01/03 04:17:41;;;;;;;6.17;2.07;;;4.60;99.90;;;;;;5021562;28;20394;-45
2023/01/03 04:20:10;;;;;;;7.63;2.17;;;4.60;99.90;;;;;;5015020;28;20238;-49
2023/01/03 04:22:38;;;;;;;4.07;1.60;;;4.60;99.90;;;;;;5031750;28;20207;-48
2023/01/03 04:25:06;;;;;;;11.77;1.93;;;4.50;99.90;;;;;;5031150;28;20280;-49
2023/01/03 04:27:34;;;;;;;4.23;2.10;;;4.50;99.90;;;;;;5017043;28;20250;-51
2023/01/03 04:30:01;;;;;;;4.63;2.40;;;4.50;99.90;;;;;;5025236;28;20199;-47
2023/01/03 04:32:28;;;;;;;7.63;2.63;;;4.50;99.90;;;;;;5021152;28;20223;-53
2023/01/03 04:34:54;;;;;;;6.00;3.20;;;4.50;99.90;;;;;;5012088;28;20215;-46
2023/01/03 04:37:21;;;;;;;5.53;2.27;;;4.40;99.90;;;;;;5025072;28;20295;-52
2023/01/03 04:39:49;;;;;;;4.10;1.80;;;4.40;99.90;;;;;;5031477;28;20965;-51
2023/01/03 04:45:00;;;;;;;3.63;2.17;;;4.40;99.90;;;;;;5025376;28;20218;-49
2023/01/03 04:47:27;;;;;;;3.43;2.63;;;4.40;99.90;;;;;;5020554;28;20636;-52
2023/01/03 04:49:54;;;;;;;9.30;2.70;;;4.40;99.90;;;;;;5009200;28;20203;-51
2023/01/03 04:52:21;;;;;;;3.60;2.30;;;4.40;99.90;;;;;;5039801;28;20198;-53
2023/01/03 04:54:49;;;;;;;6.30;2.60;;;4.40;99.90;;;;;;5026011;28;20892;-50
2023/01/03 04:57:16;;;;;;;5.87;3.03;;;4.40;99.90;;;;;;5034078;28;20215;-53
2023/01/03 04:59:43;;;;;;;5.00;2.70;;;4.40;99.90;;;;;;5022331;28;20227;-47
2023/01/03 05:02:10;;;;;;;6.80;2.33;;;4.40;99.90;;;;;;5024362;28;20207;-52
2023/01/03 05:04:36;;;;;;;6.77;2.53;;;4.40;99.90;;;;;;5020797;28;20254;-50
2023/01/03 05:07:04;;;;;;;6.90;2.70;;;4.40;99.90;;;;;;5014724;28;20233;-46
2023/01/03 05:09:31;;;;;;;6.63;2.63;;;4.40;99.90;;;;;;5022281;28;20188;-45
2023/01/03 05:11:59;;;;;;;5.07;2.73;;;4.40;99.90;;;;;;5023646;28;20693;-46
2023/01/03 05:14:26;;;;;;;4.43;2.77;;;4.40;99.90;;;;;;5020386;28;20211;-53
2023/01/03 05:17:14;;;;;;;5.60;2.03;;;4.40;99.90;;;;;;5024718;28;20321;-52
2023/01/03 05:28:01;;;;;;;6.63;2.40;;;4.50;99.90;;;;;;5028734;28;20318;-51
2023/01/03 05:30:28;;;;;;;11.27;3.10;;;4.50;99.90;;;;;;5038828;28;20198;-50
2023/01/03 05:32:58;;;;;;;9.53;3.20;;;4.50;99.90;;;;;;5026846;28;20222;-45
2023/01/03 05:35:25;;;;;;;8.03;3.23;;;4.50;99.90;;;;;;5020290;28;20230;-50
2023/01/03 05:37:52;;;;;;;12.63;3.10;;;4.50;99.90;;;;;;5021150;28;20208;-45
2023/01/03 05:40:19;;;;;;;11.57;3.20;;;4.50;99.90;;;;;;5033895;28;20219;-55
2023/01/03 05:42:46;;;;;;;5.83;2.97;;;4.60;99.90;;;;;;5040916;28;20188;-46
2023/01/03 05:45:15;;;;;;;11.03;3.23;;;4.60;99.90;;;;;;5026765;28;20710;-51
2023/01/03 05:47:42;;;;;;;7.00;2.90;;;4.60;99.90;;;;;;5026510;28;20892;-47
2023/01/03 05:50:09;;;;;;;7.00;2.70;;;4.60;99.90;;;;;;5036820;28;20198;-46
2023/01/03 05:52:36;;;;;;;3.27;2.07;;;4.60;99.90;;;;;;5013105;28;20214;-49
2023/01/03 05:55:03;;;;;;;6.60;2.37;;;4.60;99.90;;;;;;5028063;28;20200;-49
2023/01/03 05:57:30;;;;;;;6.43;4.90;;;4.60;99.90;;;;;;5026447;28;20207;-48
2023/01/03 05:59:57;;;;;;;5.40;2.53;;;4.60;99.90;;;;;;5020645;28;20223;-51
2023/01/03 06:02:25;;;;;;;9.93;4.40;;;4.60;99.90;;;;;;5017794;28;21081;-51
2023/01/03 06:04:51;;;;;;;10.57;3.07;;;4.60;99.90;;;;;;5022459;28;20667;-50
2023/01/03 06:07:18;;;;;;;15.87;3.97;;;4.60;99.90;;;;;;5030752;28;20230;-54
2023/01/03 06:09:46;;;;;;;4.57;2.60;;;4.60;99.90;;;;;;5018306;28;20943;-53
2023/01/03 06:12:13;;;;;;;12.33;3.73;;;4.60;99.90;;;;;;5023752;28;20208;-52
2023/01/03 06:14:40;;;;;;;11.00;2.90;;;4.60;99.90;;;;;;5032282;28;20199;-50
2023/01/03 06:19:53;;;;;;;9.10;3.40;;;4.60;99.90;;;;;;5026186;28;20211;-50
2023/01/03 06:22:20;;;;;;;12.30;3.90;;;4.60;99.90;;;;;;5025282;28;20196;-53
2023/01/03 06:24:47;;;;;;;16.70;5.63;;;4.60;99.90;;;;;;5015571;28;20207;-50
2023/01/03 06:27:14;;;;;;;9.37;3.80;;;4.60;99.90;;;;;;5022953;28;20698;-51
2023/01/03 06:29:40;;;;;;;11.70;4.50;;;4.60;99.90;;;;;;5023305;28;20199;-50
2023/01/03 06:32:08;;;;;;;14.40;4.20;;;4.60;99.90;;;;;;5026135;28;20581;-48
2023/01/03 06:34:35;;;;;;;7.57;3.87;;;4.50;99.90;;;;;;5021238;28;20200;-53
2023/01/03 06:37:02;;;;;;;8.67;3.20;;;4.50;99.90;;;;;;5028913;28;20228;-48
2023/01/03 06:39:32;;;;;;;8.67;4.63;;;4.50;99.90;;;;;;5007554;28;20963;-52
2023/01/03 06:42:38;;;;;;;8.20;3.80;;;4.50;99.90;;;;;;5033893;28;20323;-53
2023/01/03 06:53:10;;;;;;;5.30;3.00;;;4.50;99.90;;;;;;5040938;28;20187;-52
2023/01/03 06:53:14;;;;;;;5.20;3.60;;;4.40;99.90;;;;;;5031738;28;20196;-45
2023/01/03 06:55:42;;;;;;;16.13;6.13;;;4.40;99.90;;;;;;5019426;28;20212;-47
2023/01/03 06:58:10;;;;;;;8.30;3.80;;;4.40;99.90;;;;;;5028016;28;20218;-51
2023/01/03 07:00:39;;;;;;;6.87;4.07;;;4.40;99.90;;;;;;5021969;28;20428;-51
2023/01/03 07:03:06;;;;;;;9.47;3.80;;;4.40;99.90;;;;;;5033043;28;20202;-52
2023/01/03 07:05:33;;;;;;;9.67;3.80;;;4.40;99.90;;;;;;5024387;28;20223;-51
2023/01/03 07:07:59;;;;;;;6.23;3.73;;;4.30;99.90;;;;;;5032887;28;20208;-46
2023/01/03 07:10:28;;;;;;;8.83;3.90;;;4.30;99.90;;;;;;5011334;28;20203;-55
2023/01/03 07:15:43;;;;;;;7.10;4.03;;;4.30;99.90;;;;;;5026130;28;20294;-47
2023/01/03 07:18:10;;;;;;;5.97;3.20;;;4.30;99.90;;;;;;5036337;28;20196;-49
2023/01/03 07:20:40;;;;;;;10.10;3.90;;;4.20;99.90;;;;;;5027525;28;20226;-51
2023/01/03 07:23:07;;;;;;;3.77;3.40;;;4.20;99.90;;;;;;5029479;28;20219;-46
2023/01/03 07:25:39;;;;;;;7.97;4.13;;;4.20;99.90;;;;;;5010347;28;20280;-49
2023/01/03 07:28:08;;;;;;;7.40;4.30;;;4.10;99.90;;;;;;5032692;28;20208;-51
2023/01/03 07:30:39;;;;;;;10.63;3.40;;;4.10;99.90;;;;;;5024297;28;20183;-53
2023/01/03 07:33:10;;;;;;;3.77;2.77;;;4.10;99.90;;;;;;5037758;28;20568;-49
2023/01/03 07:35:38;;;;;;;7.50;3.63;;;4.10;99.90;;;;;;5022930;28;20261;-51
2023/01/03 07:38:06;;;;;;;4.63;2.93;;;4.10;99.90;;;;;;5030395;28;20218;-50
2023/01/03 07:40:32;;;;;;;9.73;4.17;;;4.10;99.90;;;;;;5027724;28;20641;-52
2023/01/03 07:45:46;;;;;;;8.87;3.33;;;4.00;99.90;;;;;;5030795;28;20238;-53
2023/01/03 07:48:13;;;;;;;6.17;3.40;;;4.00;99.90;;;;;;5026880;28;20234;-51
2023/01/03 07:50:41;;;;;;;4.10;2.40;;;4.00;99.90;;;;;;5034479;28;20214;-50
2023/01/03 07:53:15;;;;;;;4.33;3.03;;;4.00;99.90;;;;;;5014752;28;20310;-51
2023/01/03 07:55:43;;;;;;;5.23;3.50;;;4.00;99.90;;;;;;5038187;28;20587;-50
2023/01/03 07:58:11;;;;;;;7.30;2.67;;;4.00;99.90;;;;;;5012792;28;20215;-45
2023/01/03 08:00:39;;;;;;;5.63;2.80;;;4.00;99.90;;;;;;5033481;28;20630;-47
2023/01/03 08:03:06;;;;;;;6.47;2.60;;;4.00;99.90;;;;;;5025837;28;20282;-45
2023/01/03 08:05:34;;;;;;;11.60;4.37;;;4.00;99.90;;;;;;5027019;28;20220;-48
2023/01/03 08:08:02;;;;;;;8.10;3.60;;;4.00;99.90;;;;;;5018266;28;20265;-55
2023/01/03 08:13:18;;;;;;;8.57;2.70;;;3.90;99.90;;;;;;5013165;28;20238;-49
2023/01/03 08:15:48;;;;;;;11.00;3.80;;;3.90;99.90;;;;;;5033393;28;20250;-52
2023/01/03 08:18:15;;;;;;;11.60;4.57;;;3.90;99.90;;;;;;5018031;28;20965;-51
2023/01/03 08:20:42;;;;;;;8.27;3.03;;;3.90;99.90;;;;;;5028362;28;20253;-50
2023/01/03 08:23:09;;;;;;;10.37;3.27;;;3.90;99.90;;;;;;5019561;28;20263;-50
2023/01/03 08:25:35;;;;;;;7.17;2.77;;;3.90;99.90;;;;;;5029925;28;20231;-49
2023/01/03 08:28:03;;;;;;;9.50;3.67;;;3.90;99.90;;;;;;5011581;28;20231;-49
2023/01/03 08:30:31;;;;;;;10.57;4.13;;;3.90;99.90;;;;;;5038525;28;20192;-50
2023/01/03 08:33:01;;;;;;;3.80;3.13;;;4.00;99.90;;;;;;5019960;28;20615;-50
2023/01/03 08:35:32;;;;;;;9.73;5.47;;;4.00;99.90;;;;;;5023843;28;20600;-50
2023/01/03 08:38:02;;;;;;;8.67;4.57;;;4.10;99.90;;;;;;5019362;28;20211;-53
2023/01/03 08:40:30;;;;;;;6.47;3.80;;;4.10;99.90;;;;;;5026277;28;20258;-52
2023/01/03 08:42:57;;;;;;;9.97;4.27;;;4.10;99.90;;;;;;5013676;28;20301;-53
2023/01/03 08:45:26;;;;;;;12.40;5.73;;;4.20;99.90;;;;;;5026063;28;20200;-48
2023/01/03 08:47:56;;;;;;;8.67;4.40;;;4.20;99.90;;;;;;5018573;28;20203;-54
2023/01/03 08:50:23;;;;;;;11.90;6.47;;;4.20;99.90;;;;;;5026484;28;20207;-50
2023/01/03 08:52:50;;;;;;;13.67;5.60;;;4.30;99.90;;;;;;5025362;28;20623;-53
2023/01/03 08:55:17;;;;;;;12.53;5.67;;;4.30;99.90;;;;;;5018739;28;20208;-52
2023/01/03 08:57:43;;;;;;;9.30;4.53;;;4.30;99.90;;;;;;5021928;28;20694;-54
2023/01/03 09:00:11;;;;;;;6.53;4.20;;;4.30;99.90;;;;;;5021821;28;20230;-48
2023/01/03 09:02:38;;;;;;;10.93;5.40;;;4.40;99.90;;;;;;5028152;28;20250;-50
2023/01/03 09:05:08;;;;;;;9.90;6.10;;;4.40;99.90;;;;;;5019051;28;20996;-48
2023/01/03 09:07:34;;;;;;;7.37;5.00;;;4.40;99.90;;;;;;5032560;28;20195;-44
2023/01/03 09:10:01;;;;;;;12.13;5.63;;;4.40;99.90;;;;;;5015806;28;20771;-51
2023/01/03 09:12:30;;;;;;;8.70;5.43;;;4.30;99.90;;;;;;5028546;28;20282;-49
2023/01/03 09:14:56;;;;;;;15.20;6.70;;;4.30;99.90;;;;;;5011262;28;20215;-53
2023/01/03 09:17:23;;;;;;;6.57;5.10;;;4.30;99.90;;;;;;5028314;28;20211;-50
2023/01/03 09:19:50;;;;;;;11.63;4.90;;;4.30;99.90;;;;;;5022988;28;20278;-49
2023/01/03 09:22:18;;;;;;;10.07;5.20;;;4.30;99.90;;;;;;5028187;28;20249;-51
2023/01/03 09:24:45;;;;;;;7.67;4.97;;;4.40;99.90;;;;;;5030460;28;20929;-52
2023/01/03 09:27:12;;;;;;;10.83;5.33;;;4.50;99.90;;;;;;5033002;28;20223;-50
2023/01/03 09:29:40;;;;;;;9.90;5.63;;;4.50;99.90;;;;;;5012857;28;22126;-52
2023/01/03 09:32:06;;;;;;;8.53;5.90;;;4.60;99.90;;;;;;5032558;28;20674;-49
2023/01/03 09:34:33;;;;;;;10.90;5.27;;;4.70;99.90;;;;;;5026584;28;20662;-54
2023/01/03 09:37:03;;;;;;;10.00;5.27;;;4.70;99.90;;;;;;5030074;28;20254;-51
2023/01/03 09:39:30;;;;;;;6.80;4.60;;;4.80;99.90;;;;;;5020682;28;20212;-52
2023/01/03 09:44:45;;;;;;;9.87;5.60;;;5.00;99.90;;;;;;5020301;28;20196;-49
2023/01/03 09:47:18;;;;;;;7.20;4.87;;;5.00;99.90;;;;;;5015148;28;20588;-52
2023/01/03 09:49:46;;;;;;;11.07;5.30;;;5.10;99.90;;;;;;5020337;28;20208;-52
2023/01/03 10:04:04;;;;;;;7.07;4.63;;;5.40;99.90;;;;;;5019153;28;20203;-48
2023/01/03 10:06:40;;;;;;;10.83;4.43;;;5.50;99.90;;;;;;5027487;28;20215;-50
2023/01/03 10:09:17;;;;;;;7.17;3.93;;;5.50;99.90;;;;;;5027160;28;20204;-51
2023/01/03 10:11:53;;;;;;;8.03;4.03;;;5.60;99.90;;;;;;5036523;28;20219;-47
2023/01/03 10:14:34;;;;;;;7.20;4.60;;;5.70;99.90;;;;;;5035516;28;20227;-56
2023/01/03 10:17:10;;;;;;;9.90;4.10;;;5.80;99.90;;;;;;5038415;28;20286;-50
2023/01/03 10:20:03;;;;;;;5.67;3.60;;;5.70;99.90;;;;;;5010572;28;20210;-52
2023/01/03 10:22:32;;;;;;;7.37;3.63;;;5.60;99.90;;;;;;5037082;28;20206;-53
2023/01/03 10:25:10;;;;;;;5.90;4.53;;;5.50;99.90;;;;;;5031015;28;20202;-52
2023/01/03 10:27:44;;;;;;;6.13;4.13;;;5.40;99.90;;;;;;5025399;28;20977;-50
2023/01/03 10:30:15;;;;;;;7.73;4.47;;;5.40;99.90;;;;;;5026920;28;20206;-46
2023/01/03 10:33:09;;;;;;;11.40;6.00;;;5.40;99.90;;;;;;5032772;28;20206;-56
2023/01/03 10:35:36;;;;;;;10.97;4.40;;;5.40;99.90;;;;;;5032558;28;20215;-47
2023/01/03 10:38:03;;;;;;;8.50;3.67;;;5.40;99.90;;;;;;5022577;28;20277;-51
2023/01/03 10:40:39;;;;;;;8.77;3.80;;;5.40;99.90;;;;;;5035777;28;20710;-49
2023/01/03 10:43:18;;;;;;;8.43;3.60;;;5.40;99.90;;;;;;5033179;28;20260;-52
2023/01/03 10:45:53;;;;;;;9.93;4.87;;;5.40;99.90;;;;;;5027642;28;20231;-54
2023/01/03 10:48:21;;;;;;;11.73;6.10;;;5.40;99.90;;;;;;5013358;28;20207;-49
2023/01/03 10:50:49;;;;;;;6.57;4.00;;;5.50;99.90;;;;;;5033022;28;20214;-54
2023/01/03 10:53:19;;;;;;;10.17;5.00;;;5.40;99.90;;;;;;5036278;28;20606;-52
2023/01/03 10:55:49;;;;;;;5.77;3.67;;;5.40;99.90;;;;;;5036530;28;20230;-52
2023/01/03 10:58:24;;;;;;;4.93;3.30;;;5.40;99.90;;;;;;5038032;28;20203;-50
2023/01/03 11:00:51;;;;;;;3.80;3.20;;;5.40;99.90;;;;;;5028316;28;20230;-54
2023/01/03 11:03:20;;;;;;;7.43;3.87;;;5.40;99.90;;;;;;5037576;28;20183;-48
2023/01/03 11:05:50;;;;;;;6.57;4.63;;;5.40;99.90;;;;;;5017281;28;20590;-54
2023/01/03 11:08:20;;;;;;;5.43;4.00;;;5.50;99.90;;;;;;5032388;28;20188;-50
2023/01/03 11:10:54;;;;;;;8.17;3.73;;;5.50;99.90;;;;;;5038911;28;20220;-53
2023/01/03 11:13:28;;;;;;;5.10;3.90;;;5.50;99.90;;;;;;5029849;28;20210;-52
2023/01/03 11:15:58;;;;;;;5.03;3.57;;;5.60;99.90;;;;;;5027845;28;20694;-55
2023/01/03 11:18:27;;;;;;;6.47;4.27;;;5.60;99.90;;;;;;5039089;28;20198;-52
2023/01/03 11:21:04;;;;;;;9.87;3.60;;;5.70;99.90;;;;;;5010776;28;20294;-51
2023/01/03 11:23:49;;;;;;;5.37;4.23;;;5.80;99.90;;;;;;5031830;28;20550;-46
2023/01/03 11:26:28;;;;;;;4.43;3.23;;;5.80;99.90;;;;;;5030585;28;20223;-49
2023/01/03 11:29:07;;;;;;;6.87;3.37;;;5.80;99.90;;;;;;5035356;28;20187;-51
2023/01/03 11:31:41;;;;;;;4.87;3.30;;;5.90;99.90;;;;;;5030940;28;20579;-51
2023/01/03 11:34:23;;;;;;;7.80;3.33;;;5.90;99.90;;;;;;5022200;28;20918;-51
2023/01/03 11:36:56;;;;;;;6.63;3.80;;;6.10;99.90;;;;;;5015990;28;20228;-52
2023/01/03 11:39:42;;;;;;;7.37;3.50;;;6.10;99.90;;;;;;5036395;28;20211;-53
2023/01/03 11:42:33;;;;;;;8.30;3.93;;;6.10;99.90;;;;;;5034098;28;20305;-51
2023/01/03 11:45:30;;;;;;;5.70;3.63;;;6.20;99.90;;;;;;5028292;28;20192;-47
2023/01/03 11:48:15;;;;;;;6.77;3.20;;;6.20;99.90;;;;;;5020012;28;20207;-52
2023/01/03 11:50:50;;;;;;;4.30;3.17;;;6.20;99.90;;;;;;5027223;28;20286;-51
2023/01/03 11:53:32;;;;;;;4.13;3.47;;;6.30;99.90;;;;;;5024297;28;20745;-47
2023/01/03 11:56:08;;;;;;;7.20;3.37;;;6.30;99.90;;;;;;5024564;28;20523;-50
2023/01/03 11:59:05;;;;;;;4.93;3.63;;;6.30;99.90;;;;;;5035226;28;20218;-48
2023/01/03 12:02:03;;;;;;;5.40;3.10;;;6.40;99.90;;;;;;5035413;28;20244;-53
2023/01/03 12:04:38;;;;;;;5.83;2.57;;;6.40;99.90;;;;;;5037092;28;20761;-51
2023/01/03 12:07:14;;;;;;;3.20;2.20;;;6.40;99.90;;;;;;5013325;28;21144;-52
2023/01/03 12:09:49;;;;;;;5.17;1.97;;;6.50;99.90;;;;;;5028382;28;20559;-52
2023/01/03 12:12:32;;;;;;;4.17;2.20;;;6.50;99.90;;;;;;5037633;28;20190;-53
2023/01/03 12:15:02;;;;;;;6.33;2.60;;;6.50;99.90;;;;;;5031957;28;20207;-52
2023/01/03 12:17:38;;;;;;;3.67;1.90;;;6.50;99.90;;;;;;5033561;28;20226;-46
2023/01/03 12:20:14;;;;;;;3.90;1.97;;;6.50;99.90;;;;;;5030312;28;20214;-45
2023/01/03 12:22:43;;;;;;;4.80;2.63;;;6.50;99.90;;;;;;5037016;28;20219;-53
2023/01/03 12:25:20;;;;;;;3.70;1.70;;;6.60;99.90;;;;;;5021642;28;20204;-50
2023/01/03 12:27:50;;;;;;;4.57;1.90;;;6.60;99.90;;;;;;5033485;28;20214;-55
2023/01/03 12:30:28;;;;;;;5.00;1.40;;;6.60;99.90;;;;;;5037684;28;20201;-51
2023/01/03 12:33:05;;;;;;;1.43;1.33;;;6.60;99.90;;;;;;5031113;28;20187;-49
2023/01/03 12:35:38;;;;;;;4.17;1.50;;;6.60;99.90;;;;;;5031190;28;20239;-44
2023/01/03 12:38:06;;;;;;;3.70;1.30;;;6.60;99.90;;;;;;5013365;28;25080;-46
2023/01/03 12:40:41;;;;;;;2.23;1.53;;;6.60;99.90;;;;;;5027168;28;20204;-46
2023/01/03 12:43:12;;;;;;;2.43;1.73;;;6.70;99.90;;;;;;5034996;28;20207;-48
2023/01/03 12:45:48;;;;;;;1.83;1.53;;;6.70;99.90;;;;;;5024535;28;20227;-48
2023/01/03 12:48:31;;;;;;;1.80;1.40;;;6.70;99.90;;;;;;5026164;28;20211;-48
2023/01/03 12:50:58;;;;;;;2.17;1.13;;;6.70;99.90;;;;;;5032187;28;20211;-51
2023/01/03 12:53:30;;;;;;;3.30;1.20;;;6.70;99.90;;;;;;5035608;28;20842;-51
2023/01/03 12:56:29;;;;;;;2.30;1.00;;;6.70;99.90;;;;;;5011520;28;20227;-51
2023/01/03 12:59:08;;;;;;;3.77;1.43;;;6.70;99.90;;;;;;5034644;28;20207;-51
2023/01/03 13:01:39;;;;;;;2.47;1.33;;;6.70;99.90;;;;;;5035149;28;20218;-51
2023/01/03 13:04:13;;;;;;;4.63;1.47;;;6.70;99.90;;;;;;5023274;28;20210;-50
2023/01/03 13:06:46;;;;;;;2.83;1.40;;;6.70;99.90;;;;;;5028693;28;20222;-49
2023/01/03 13:09:19;;;;;;;2.43;1.40;;;6.70;99.90;;;;;;5035116;28;20214;-47
2023/01/03 13:11:50;;;;;;;2.90;1.57;;;6.70;99.90;;;;;;5015245;28;20210;-53
2023/01/03 13:14:19;;;;;;;2.33;1.50;;;6.70;99.90;;;;;;5034715;28;20223;-49
2023/01/03 13:16:47;;;;;;;6.63;1.97;;;6.60;99.90;;;;;;5030535;28;20622;-55
2023/01/03 13:19:50;;;;;;;5.00;2.03;;;6.70;99.90;;;;;;5029084;28;20230;-49
2023/01/03 13:22:41;;;;;;;4.30;2.80;;;6.70;99.90;;;;;;5038744;28;20233;-50
2023/01/03 13:25:38;;;;;;;4.80;1.90;;;6.70;99.90;;;;;;5033949;28;20199;-50
2023/01/03 13:28:30;;;;;;;5.00;2.67;;;6.70;99.90;;;;;;5011414;28;20294;-52
2023/01/03 13:31:38;;;;;;;4.50;1.77;;;6.70;99.90;;;;;;5035213;28;20195;-51
2023/01/03 13:34:16;;;;;;;5.53;2.13;;;6.60;99.90;;;;;;5024763;28;20209;-48
2023/01/03 13:37:26;;;;;;;4.20;2.07;;;6.60;99.90;;;;;;5029976;28;20222;-54
2023/01/03 13:40:03;;;;;;;3.87;2.13;;;6.60;99.90;;;;;;5034691;28;20206;-54
2023/01/03 13:42:36;;;;;;;3.63;2.23;;;6.60;99.90;;;;;;5025932;28;20215;-49
2023/01/03 13:45:38;;;;;;;4.77;2.17;;;6.60;99.90;;;;;;5034283;28;20187;-46
2023/01/03 13:48:18;;;;;;;8.93;3.50;;;6.60;99.90;;;;;;5031197;28;20198;-50
2023/01/03 13:51:23;;;;;;;10.73;2.13;;;6.60;99.90;;;;;;5034950;28;20207;-50
2023/01/03 13:53:57;;;;;;;4.33;2.43;;;6.60;99.90;;;;;;5037706;28;20204;-49
2023/01/03 13:56:29;;;;;;;8.90;3.40;;;6.60;99.90;;;;;;5044076;28;20701;-50
2023/01/03 13:59:01;;;;;;;4.97;2.70;;;6.50;99.90;;;;;;5018822;28;20207;-52
2023/01/03 14:01:49;;;;;;;6.37;2.57;;;6.50;99.90;;;;;;5041057;28;20215;-48
2023/01/03 14:04:56;;;;;;;3.23;2.17;;;6.50;99.90;;;;;;5039539;28;20929;-49
2023/01/03 14:07:59;;;;;;;3.70;2.37;;;6.50;99.90;;;;;;5039155;28;20219;-51
2023/01/03 14:10:51;;;;;;;5.47;3.20;;;6.50;99.90;;;;;;5041473;28;20192;-51
2023/01/03 14:13:38;;;;;;;6.53;3.20;;;6.40;99.90;;;;;;5021369;28;20961;-48
2023/01/03 14:16:21;;;;;;;5.87;3.00;;;6.30;99.90;;;;;;5034901;28;20215;-48
2023/01/03 14:18:57;;;;;;;7.07;3.10;;;6.30;99.90;;;;;;5031593;28;20253;-49
2023/01/03 14:21:26;;;;;;;3.80;2.97;;;6.20;99.90;;;;;;5022018;28;20215;-52
2023/01/03 14:23:57;;;;;;;5.13;3.03;;;6.20;99.90;;;;;;5042417;28;20195;-44
2023/01/03 14:26:24;;;;;;;5.73;3.83;;;6.20;99.90;;;;;;5028294;28;20216;-52
2023/01/03 14:28:54;;;;;;;8.77;3.77;;;6.10;99.90;;;;;;5021296;28;20211;-47